Overview Statistics Trail Chart Weather Telemetry Raw packets
 

This is the latest recevied weather packets stored in our database for station/object OE6ATD-13. If no packets are shown the sender has not sent any weather packets the latest 10 day(s).

<< 39 40 41 42 43 44 45 >>
Time Temp. Humidity Pressure Rain* Wind** Luminosity Snow
1788102617 32.22° C 35% 1015.3 hPa 0 mm - 254 W/m² -
1788102029 31.67° C 36% 1015.5 hPa 0 mm - 281 W/m² -
1788101424 32.22° C 35% 1015.5 hPa 0 mm - 323 W/m² -
1788100820 32.22° C 34% 1015.5 hPa 0 mm - 361 W/m² -
1788100216 32.78° C 31% 1015.7 hPa 0 mm - 398 W/m² -
1788099622 32.22° C 34% 1015.7 hPa 0 mm - 433 W/m² -
1788099018 31.67° C 36% 1015.9 hPa 0 mm - 469 W/m² -
1788098429 32.22° C 35% 1015.8 hPa 0 mm - 499 W/m² -
1788097824 32.22° C 35% 1015.9 hPa 0 mm - 534 W/m² -
1788097221 31.67° C 34% 1016 hPa 0 mm - 566 W/m² -
1788096616 31.67° C 34% 1016.2 hPa 0 mm - 591 W/m² -
1788096027 31.67° C 33% 1016.2 hPa 0 mm - 626 W/m² -
1788095423 31.67° C 32% 1016.4 hPa 0 mm - 653 W/m² -
1788094818 31.67° C 32% 1016.3 hPa 0 mm - 683 W/m² -
1788094228 31.67° C 32% 1016.4 hPa 0 mm - 707 W/m² -
1788093623 31.67° C 33% 1016.5 hPa 0 mm - 725 W/m² -
1788093020 31.11° C 34% 1016.5 hPa 0 mm - 742 W/m² -
1788092415 30.56° C 34% 1016.6 hPa 0 mm - 767 W/m² -
1788091826 31.11° C 35% 1016.6 hPa 0 mm - 793 W/m² -
1788091221 31.11° C 35% 1016.7 hPa 0 mm - 810 W/m² -
1788090617 31.11° C 35% 1016.8 hPa 0 mm - 823 W/m² -
1788090029 30.56° C 37% 1016.9 hPa 0 mm - 828 W/m² -
1788089424 29.44° C 37% 1016.9 hPa 0 mm - 831 W/m² -
1788088823 30° C 36% 1017.1 hPa 0 mm - 845 W/m² -
1788088219 30° C 37% 1017.1 hPa 0 mm - 852 W/m² -

* Rain latest hour (hover to see other rain measurements)
** Current wind speed in m/s (hover to see current wind gust speed)